createdAt,value
2017-11-09T00:13:25.974Z,18.30
2017-11-09T00:15:51.744Z,20.00
2017-11-09T00:18:45.330Z,18.80
2017-11-09T00:21:42.274Z,15.52
2017-11-09T00:40:58.681Z,19.33
2017-11-09T01:00:10.935Z,18.67
2017-11-09T01:02:59.888Z,17.63
2017-11-09T01:05:56.964Z,16.55
2017-11-09T01:08:54.331Z,18.67
2017-11-09T01:11:52.017Z,21.77
2017-11-09T01:14:49.849Z,18.50
2017-11-09T01:23:58.261Z,19.37
2017-11-09T01:26:47.397Z,19.47
2017-11-09T01:29:44.449Z,21.27
2017-11-09T01:32:42.306Z,20.60
2017-11-09T01:35:39.331Z,21.62
2017-11-09T01:38:37.140Z,19.27
2017-11-09T01:41:34.224Z,17.40
2017-11-09T01:44:31.334Z,19.42
2017-11-09T01:46:57.133Z,20.40
2017-11-09T01:49:46.671Z,20.70
2017-11-09T02:08:58.825Z,20.10
2017-11-09T02:11:47.905Z,17.67
2017-11-09T02:14:44.917Z,18.77
2017-11-09T02:30:35.467Z,17.12
2017-11-09T02:33:24.357Z,21.67
2017-11-09T02:36:21.396Z,20.80
2017-11-09T02:39:19.459Z,18.67
2017-11-09T02:42:17.307Z,20.73
2017-11-09T02:52:07.278Z,21.33
2017-11-09T03:11:43.090Z,14.23
2017-11-09T03:14:08.849Z,18.62
2017-11-09T03:33:48.099Z,19.85
2017-11-09T03:36:13.865Z,16.42
2017-11-09T03:39:03.376Z,21.43
2017-11-09T03:42:01.347Z,18.30
2017-11-09T03:44:58.328Z,19.05
2017-11-09T03:47:55.472Z,15.38
2017-11-09T03:57:45.988Z,15.38
2017-11-09T04:00:35.132Z,17.15
2017-11-09T04:03:32.077Z,17.35
2017-11-09T04:06:29.124Z,15.90
2017-11-09T04:09:26.157Z,18.48
2017-11-09T04:12:23.291Z,21.37
2017-11-09T04:15:20.337Z,18.20
2017-11-09T04:18:17.278Z,18.92
2017-11-09T04:20:43.044Z,17.75
2017-11-09T04:23:32.843Z,15.93
2017-11-09T04:26:29.871Z,15.38
2017-11-09T04:29:26.839Z,20.40
2017-11-09T04:42:13.595Z,17.12
2017-11-09T04:45:03.288Z,18.02
2017-11-09T04:48:01.038Z,17.58
2017-11-09T05:07:09.398Z,17.65
2017-11-09T05:26:22.579Z,19.27
2017-11-09T05:29:12.283Z,21.23
2017-11-09T05:32:09.415Z,23.83
2017-11-09T05:47:59.936Z,26.98
2017-11-09T05:50:48.855Z,23.70
2017-11-09T05:53:45.998Z,26.60
2017-11-09T05:56:43.984Z,29.75
2017-11-09T05:59:41.397Z,24.33
2017-11-09T06:09:32.578Z,29.23
2017-11-09T06:12:22.367Z,27.90
2017-11-09T06:35:01.926Z,30.83
2017-11-09T06:54:14.619Z,25.17
2017-11-09T07:13:51.271Z,30.15
2017-11-09T07:16:17.070Z,29.55
2017-11-09T07:19:06.445Z,31.37
2017-11-09T07:38:18.633Z,30.83
2017-11-09T07:41:07.644Z,26.87
2017-11-09T08:00:21.309Z,31.87
2017-11-09T08:19:56.940Z,33.05
2017-11-09T08:39:07.948Z,23.20
2017-11-09T08:42:04.883Z,31.75
2017-11-09T08:44:30.652Z,39.40
2017-11-09T08:47:20.297Z,24.30
2017-11-09T08:50:17.509Z,23.65
2017-11-09T08:53:15.564Z,20.10
2017-11-09T09:06:00.596Z,19.67
2017-11-09T09:25:37.336Z,16.12
2017-11-09T09:28:03.199Z,20.90
2017-11-09T09:47:38.549Z,19.00
2017-11-09T09:50:04.348Z,14.00
2017-11-09T09:52:54.201Z,15.20
2017-11-09T09:55:50.921Z,13.90
2017-11-09T10:11:40.812Z,10.57
2017-11-09T10:14:29.816Z,13.60
2017-11-09T10:17:27.536Z,9.35
2017-11-09T10:20:24.357Z,14.52
2017-11-09T10:23:21.453Z,11.07
2017-11-09T10:26:18.440Z,8.90
2017-11-09T10:29:16.244Z,10.50
2017-11-09T10:32:13.137Z,12.15
2017-11-09T10:34:39.879Z,11.48
2017-11-09T10:37:28.970Z,10.90
2017-11-09T10:56:40.276Z,10.57
2017-11-09T10:59:29.603Z,9.30
2017-11-09T11:18:42.081Z,8.93
2017-11-09T11:38:18.081Z,14.48
2017-11-09T11:40:43.890Z,10.15
2017-11-09T12:00:19.012Z,12.15
2017-11-09T12:02:44.811Z,10.50
2017-11-09T12:05:34.299Z,11.63
2017-11-09T12:08:31.441Z,8.60
2017-11-09T12:24:23.237Z,47.40
2017-11-09T12:27:12.317Z,12.53
2017-11-09T12:30:09.513Z,9.30
2017-11-09T12:49:21.610Z,13.35
2017-11-09T13:08:34.241Z,8.32
2017-11-09T13:11:23.468Z,10.80
2017-11-09T13:30:36.008Z,12.82
2017-11-09T13:50:12.781Z,11.12
2017-11-09T13:52:38.540Z,13.30
2017-11-09T13:55:27.664Z,14.70
2017-11-09T13:58:24.725Z,12.98
2017-11-09T14:01:21.799Z,14.30
2017-11-09T14:04:19.472Z,14.73
2017-11-09T14:07:17.064Z,15.60
2017-11-09T14:10:14.169Z,13.68
2017-11-09T14:13:11.521Z,15.68
2017-11-09T14:15:37.371Z,16.85
2017-11-09T14:18:26.904Z,17.27
2017-11-09T14:21:24.857Z,11.90
2017-11-09T14:24:22.610Z,12.07
2017-11-09T14:27:19.325Z,15.90
2017-11-09T14:30:16.484Z,14.48
2017-11-09T14:33:14.437Z,17.73
2017-11-09T14:39:01.177Z,16.10
2017-11-09T14:41:50.931Z,15.20
2017-11-09T14:44:48.069Z,19.33
2017-11-09T14:47:45.198Z,18.90
2017-11-09T15:00:29.428Z,19.27
2017-11-09T15:03:19.016Z,20.33
2017-11-09T15:06:16.874Z,19.92
2017-11-09T15:09:14.026Z,20.52
2017-11-09T15:12:11.834Z,25.77
2017-11-09T15:22:01.786Z,23.35
2017-11-09T15:24:53.056Z,23.60
2017-11-09T15:44:04.468Z,26.00
2017-11-09T15:46:53.502Z,33.20
2017-11-09T16:06:06.104Z,26.33
2017-11-09T16:08:55.863Z,23.13
2017-11-09T16:28:08.968Z,26.17
2017-11-09T16:48:02.143Z,19.87
2017-11-09T17:07:18.921Z,25.30
2017-11-09T17:10:16.807Z,33.78
2017-11-09T17:29:29.376Z,22.08
2017-11-09T17:48:40.920Z,21.62
2017-11-09T17:51:38.070Z,20.60
2017-11-09T17:54:35.724Z,15.38
2017-11-09T18:13:45.843Z,9.52
2017-11-09T18:16:43.828Z,14.10
2017-11-09T18:19:09.603Z,12.85
2017-11-09T18:21:58.816Z,12.00
2017-11-09T18:24:57.157Z,14.25
2017-11-09T18:27:54.306Z,16.42
2017-11-09T18:40:38.815Z,15.43
2017-11-09T18:43:28.464Z,15.07
2017-11-09T18:46:25.536Z,14.07
2017-11-09T19:02:15.756Z,13.98
2017-11-09T19:22:05.580Z,13.73
2017-11-09T19:24:31.347Z,14.32
2017-11-09T19:27:21.144Z,18.30
2017-11-09T19:30:18.228Z,15.32
2017-11-09T19:46:09.076Z,14.23
2017-11-09T19:48:58.219Z,12.90
2017-11-09T19:51:55.668Z,10.77
2017-11-09T19:54:52.694Z,13.07
2017-11-09T20:07:40.393Z,10.32
2017-11-09T20:10:30.188Z,15.63
2017-11-09T20:13:27.500Z,17.70
2017-11-09T20:32:38.560Z,18.95
2017-11-09T20:51:51.744Z,14.07
2017-11-09T20:54:40.825Z,16.60
2017-11-09T20:57:37.957Z,13.75
2017-11-09T21:00:35.082Z,14.25
2017-11-09T21:03:32.137Z,9.07
2017-11-09T21:13:22.476Z,8.63
2017-11-09T21:32:59.529Z,17.77
2017-11-09T21:52:17.441Z,17.15
2017-11-09T21:55:14.685Z,25.30
2017-11-09T21:57:40.492Z,24.80
2017-11-09T22:00:29.518Z,21.07
2017-11-09T22:19:42.452Z,21.45
2017-11-09T22:39:18.247Z,27.48
2017-11-09T22:41:44.027Z,32.53
2017-11-09T22:44:33.824Z,34.90
2017-11-09T23:03:46.444Z,41.40
2017-11-09T23:06:35.384Z,38.43
2017-11-09T23:09:32.536Z,41.47
2017-11-09T23:12:29.342Z,36.53
2017-11-09T23:25:16.459Z,43.20
2017-11-09T23:28:06.166Z,32.83
2017-11-09T23:47:19.252Z,31.75
2017-11-09T23:50:08.997Z,39.03
2017-11-09T23:53:07.040Z,28.77
2017-11-09T23:56:04.905Z,29.73
